Latest Weather Observations for Armidale Airport

IDN60801

Issued at 5:35 pm EDT Wednesday 26 November 2014 (issued every 30 minutes, with the page automatically refreshed every 10 minutes)

About weather observations | Map of weather stations | Latest weather observations for NSW | Other Formats
Station Details ID: 056238 Name: ARMIDALE AIRPORT AWS Lat: -30.53 Lon: 151.62 Height: 1079.0 m
Data from the previous 72 hours. | See also: Recent months for locations in New South Wales
Date/Time
EDT
Temp
°C
App
Temp
°C
Dew
Point
Rel
Hum
%
Delta-T
°C
Wind Press
QNH
hPa
Press
MSL
hPa
Rain
since 9 am
mm
Dir
 
Spd
km/h
Gust
km/h
Spd
kts
Gust
kts
26/05:30pm 20.4 19.1 15.8 75 2.9 E 17 19 9 10 1018.8 1014.4 0.0
26/05:00pm 20.9 19.6 15.9 73 3.1 ENE 17 20 9 11 1018.7 1014.3 0.0
26/04:30pm 20.7 19.7 15.7 73 3.1 ESE 15 19 8 10 1018.7 1014.3 0.0
26/04:00pm 21.5 20.2 15.8 70 3.6 ENE 17 20 9 11 1018.8 1014.4 0.0
26/03:30pm 21.8 20.3 15.4 67 4.0 NE 17 26 9 14 1019.1 1014.8 0.0
26/03:00pm 22.1 20.5 14.0 60 4.9 W 15 24 8 13 1019.6 1015.2 0.0
26/02:30pm 24.2 21.5 13.4 51 6.6 W 20 24 11 13 1019.5 1015.1 0.0
26/02:00pm 23.7 20.3 13.6 53 6.2 W 24 32 13 17 1019.6 1015.2 0.0
26/01:30pm 23.8 21.1 13.6 52 6.2 W 20 30 11 16 1019.9 1015.6 0.0
26/01:00pm 23.9 21.1 14.3 55 5.9 W 22 32 12 17 1020.1 1015.8 0.0
26/12:30pm 23.3 20.2 13.5 54 6.0 W 22 28 12 15 1020.6 1016.2 0.0
26/12:00pm 22.7 22.3 14.0 58 5.3 W 9 20 5 11 1020.7 1016.4 0.0
26/11:30am 22.1 22.0 14.0 60 5.0 ENE 7 13 4 7 1021.0 1016.7 0.0
26/11:00am 22.1 20.9 14.0 60 4.9 NE 13 20 7 11 1021.1 1016.8 0.0
26/10:30am 21.3 19.1 14.5 65 4.2 NE 19 28 10 15 1021.0 1016.7 0.0
26/10:00am 20.4 17.2 14.3 68 3.7 ENE 24 32 13 17 1021.0 1016.7 0.0
26/09:30am 19.2 15.8 14.7 75 2.8 ENE 26 35 14 19 1021.3 1016.9 0.0
26/09:00am 18.4 15.7 15.6 84 1.7 ENE 24 32 13 17 1021.5 1017.1 0.0
26/08:30am 17.1 15.2 16.8 98 0.2 ENE 22 28 12 15 1021.6 1017.3 0.0
26/08:15am 16.4 14.3 16.1 98 0.2 ENE 22 28 12 15 1021.5 1017.1 0.0
26/08:00am 16.0 14.3 15.8 99 0.1 E 19 24 10 13 1021.5 1017.1 0.0
26/07:30am 15.2 13.3 15.2 100 0.0 E 19 24 10 13 1021.5 1017.1 0.0
26/07:11am 14.9 12.9 14.9 100 0.0 E 19 24 10 13 1021.3 1016.9 0.0
26/07:00am 14.9 12.7 14.9 100 0.0 E 20 24 11 13 1020.9 1016.6 0.0
26/06:47am 15.0 12.8 15.0 100 0.0 E 20 24 11 13 1020.7 1016.4 0.0
26/06:30am 14.5 12.1 14.5 100 0.0 E 20 24 11 13 1020.7 1016.4 0.0
26/06:00am 14.3 11.9 14.3 100 0.0 E 20 24 11 13 1020.6 1016.2 0.0
26/05:30am 14.2 11.4 14.2 100 0.0 E 22 28 12 15 1020.5 1016.1 0.0
26/05:25am 14.3 11.5 14.3 100 0.0 E 22 28 12 15 1020.4 1016.0 0.0
26/05:00am 14.2 11.7 14.2 100 0.0 E 20 28 11 15 1020.4 1016.0 0.0
26/04:30am 14.2 11.4 14.2 100 0.0 E 22 28 12 15 1020.3 1015.9 0.0
26/04:14am 14.2 11.4 14.2 100 0.0 E 22 28 12 15 1019.9 1015.6 0.0
26/04:00am 14.4 12.0 14.4 100 0.0 E 20 26 11 14 1019.8 1015.4 0.0
26/03:48am 14.3 11.5 14.3 100 0.0 E 22 30 12 16 1020.0 1015.7 0.0
26/03:30am 14.3 11.5 14.3 100 0.0 E 22 30 12 16 1020.3 1015.9 0.0
26/03:25am 14.3 11.5 14.3 100 0.0 E 22 32 12 17 1020.1 1015.8 0.0
26/03:00am 14.4 12.0 14.4 100 0.0 E 20 28 11 15 1020.1 1015.8 0.0
26/02:56am 14.4 12.2 14.4 100 0.0 E 19 26 10 14 1020.1 1015.8 0.0
26/02:30am 14.3 12.1 14.3 100 0.0 E 19 26 10 14 1020.5 1016.1 0.0
26/02:00am 14.5 12.1 14.5 100 0.0 E 20 30 11 16 1020.6 1016.2 0.0
26/01:30am 14.4 11.6 14.4 100 0.0 E 22 32 12 17 1020.9 1016.6 0.0
26/01:00am 14.5 11.8 14.5 100 0.0 E 22 30 12 16 1021.4 1017.0 0.0
26/12:30am 14.5 11.8 14.5 100 0.0 E 22 35 12 19 1021.5 1017.1 0.0
26/12:00am 14.6 11.9 14.6 100 0.0 E 22 30 12 16 1021.7 1017.4 0.0
 
Date/Time
EDT
Temp
°C
App
Temp
°C
Dew
Point
Rel
Hum
%
Delta-T
°C
Wind Press
QNH
hPa
Press
MSL
hPa
Rain
since 9 am
mm
Dir
 
Spd
km/h
Gust
km/h
Spd
kts
Gust
kts
25/11:30pm 14.9 12.7 14.9 100 0.0 E 20 30 11 16 1021.7 1017.4 0.0
25/11:00pm 15.4 12.9 15.2 99 0.1 E 22 30 12 16 1021.8 1017.5 0.0
25/10:55pm 15.4 12.5 15.2 99 0.1 E 24 30 13 16 1021.8 1017.5 0.0
25/10:40pm 15.6 13.2 15.4 99 0.1 E 22 30 12 16 1021.8 1017.5 0.0
25/10:30pm 15.6 12.1 15.4 99 0.1 E 28 33 15 18 1021.6 1017.3 0.0
25/10:00pm 16.3 13.8 16.1 99 0.1 E 24 32 13 17 1021.7 1017.4 0.0
25/09:30pm 17.5 14.5 16.9 96 0.4 E 28 35 15 19 1021.3 1016.9 0.0
25/09:08pm 18.1 15.9 16.9 93 0.8 E 24 33 13 18 1020.9 1016.6 0.0
25/09:00pm 18.3 16.1 16.8 91 0.9 E 24 33 13 18 1020.8 1016.5 0.0
25/08:30pm 19.3 18.0 17.3 88 1.3 E 20 28 11 15 1020.3 1015.9 0.0
25/08:00pm 20.5 18.5 16.5 78 2.5 ESE 22 28 12 15 1020.3 1015.9 0.0
25/07:30pm 21.4 21.2 14.6 65 4.2 SSW 9 13 5 7 1019.9 1015.6 0.0
25/07:00pm 22.0 22.2 14.6 63 4.6 SW 7 13 4 7 1019.5 1015.1 0.0
25/06:30pm 22.2 22.4 14.6 62 4.7 WNW 7 9 4 5 1018.9 1014.5 0.0
25/06:00pm 22.3 21.9 14.2 60 5.0 WNW 9 11 5 6 1018.7 1014.3 0.0
25/05:30pm 22.6 22.2 14.2 59 5.2 NNW 9 11 5 6 1018.5 1014.1 0.0
25/05:00pm 22.9 22.4 13.7 56 5.6 WNW 9 13 5 7 1018.5 1014.1 0.0
25/04:30pm 22.8 22.2 13.6 56 5.6 W 9 15 5 8 1018.5 1014.1 0.0
25/04:00pm 22.9 21.4 14.2 58 5.3 W 15 20 8 11 1018.6 1014.2 0.0
25/03:30pm 22.8 21.5 13.8 57 5.5 W 13 20 7 11 1018.7 1014.3 0.0
25/03:00pm 23.2 21.7 14.2 57 5.5 W 15 20 8 11 1018.8 1014.4 0.0
25/02:30pm 22.6 21.3 14.7 61 4.9 W 15 20 8 11 1018.9 1014.5 0.0
25/02:00pm 22.3 21.0 14.7 62 4.7 W 15 20 8 11 1018.9 1014.5 0.0
25/01:30pm 21.7 20.0 14.8 65 4.3 W 17 20 9 11 1019.3 1014.9 0.0
25/01:00pm 22.1 19.6 14.0 60 4.9 W 20 28 11 15 1019.6 1015.2 0.0
25/12:30pm 22.1 19.6 14.2 61 4.8 WSW 20 28 11 15 1019.7 1015.3 0.0
25/12:00pm 22.1 18.8 14.0 60 4.9 WSW 24 32 13 17 1019.6 1015.2 0.0
25/11:30am 22.9 20.6 14.2 58 5.4 WNW 19 26 10 14 1019.4 1015.0 0.0
25/11:00am 22.4 20.2 14.8 62 4.7 WSW 20 22 11 12 1019.4 1015.0 0.0
25/10:30am 22.0 21.0 14.6 63 4.6 WNW 13 19 7 10 1019.5 1015.1 0.0
25/10:00am 22.1 21.1 14.5 62 4.7 WNW 13 19 7 10 1019.5 1015.1 0.0
25/09:30am 21.8 20.0 14.4 63 4.5 W 17 26 9 14 1019.6 1015.2 0.0
25/09:00am 21.5 19.9 14.9 66 4.1 W 17 20 9 11 1019.5 1015.1 4.4
25/08:30am 21.4 19.7 14.6 65 4.2 WSW 17 24 9 13 1019.3 1014.9 4.4
25/08:00am 20.8 19.6 15.1 70 3.5 W 15 20 8 11 1019.1 1014.8 4.4
25/07:30am 20.4 20.0 15.2 72 3.2 WNW 11 15 6 8 1018.6 1014.2 4.4
25/07:00am 19.1 19.7 15.8 81 2.1 NW 7 11 4 6 1018.1 1013.7 4.4
25/06:30am 17.5 18.4 16.0 91 0.9 NNW 6 9 3 5 1017.9 1013.5 4.4
25/06:00am 16.9 16.5 15.1 89 1.1 N 11 11 6 6 1017.7 1013.3 4.4
25/05:30am 16.7 18.4 15.2 91 0.9 CALM 0 0 0 0 1017.5 1013.1 4.4
25/05:00am 17.1 17.7 15.3 89 1.1 NNW 6 7 3 4 1017.1 1012.7 4.4
25/04:30am 17.0 17.7 15.7 92 0.8 NNW 6 7 3 4 1017.3 1012.8 4.4
25/04:00am 16.9 18.6 16.3 96 0.4 WNW 2 7 1 4 1017.1 1012.7 4.4
25/03:30am 17.2 17.6 16.2 94 0.6 W 9 13 5 7 1017.0 1012.6 4.4
25/03:00am 17.4 18.2 16.3 93 0.7 WNW 7 9 4 5 1017.3 1012.8 4.4
25/02:30am 17.4 18.4 16.4 94 0.6 W 6 7 3 4 1017.4 1013.0 4.4
25/02:00am 17.4 18.5 16.6 95 0.5 WNW 6 7 3 4 1017.6 1013.2 4.4
25/01:30am 17.4 18.0 16.9 97 0.3 WNW 9 9 5 5 1017.7 1013.3 4.4
25/01:00am 17.7 18.2 16.6 93 0.7 WNW 9 9 5 5 1017.9 1013.5 4.4
25/12:30am 18.3 18.8 16.6 90 1.1 W 9 11 5 6 1018.1 1013.7 4.4
25/12:00am 18.8 18.9 16.4 86 1.5 W 11 15 6 8 1017.9 1013.5 4.4
 
Date/Time
EDT
Temp
°C
App
Temp
°C
Dew
Point
Rel
Hum
%
Delta-T
°C
Wind Press
QNH
hPa
Press
MSL
hPa
Rain
since 9 am
mm
Dir
 
Spd
km/h
Gust
km/h
Spd
kts
Gust
kts
24/11:30pm 19.5 18.2 15.8 79 2.3 WSW 17 20 9 11 1018.0 1013.6 4.4
24/11:00pm 19.3 17.9 16.5 84 1.8 W 19 26 10 14 1018.8 1014.4 4.4
24/10:30pm 18.6 17.3 16.9 90 1.1 W 19 24 10 13 1018.4 1014.0 4.4
24/10:27pm 18.6 17.7 16.9 90 1.1 W 17 24 9 13 1018.4 1014.0 4.4
24/10:07pm 19.0 16.2 16.4 85 1.6 W 26 35 14 19 1019.0 1014.7 3.4
24/10:00pm 19.9 16.7 16.3 80 2.3 WSW 28 33 15 18 1018.5 1014.1 1.6
24/09:50pm 19.5 16.4 16.5 83 1.9 SW 28 35 15 19 1018.0 1013.6 1.6
24/09:35pm 18.9 13.6 16.3 85 1.6 SSW 39 56 21 30 1017.5 1013.1 1.4
24/09:30pm 19.3 13.0 15.6 79 2.3 SSW 43 61 23 33 1017.5 1013.1 0.4
24/09:29pm 19.6 13.3 15.7 78 2.4 SSW 43 61 23 33 1017.5 1013.1 0.0
24/09:28pm 19.9 13.3 15.3 75 2.8 SSW 44 61 24 33 1017.4 1013.0 0.0
24/09:24pm 20.7 14.0 15.0 70 3.5 SW 44 61 24 33 1017.3 1012.8 0.0
24/09:22pm 21.4 17.3 15.0 67 4.0 WSW 30 61 16 33 1016.9 1012.5 0.0
24/09:21pm 22.2 18.8 14.8 63 4.6 WSW 26 54 14 29 1016.9 1012.5 0.0
24/09:11pm 22.8 18.7 13.8 57 5.5 WSW 28 35 15 19 1016.8 1012.4 0.0
24/09:08pm 24.4 18.0 13.3 50 6.8 WNW 39 50 21 27 1016.8 1012.4 0.0
24/09:04pm 22.7 15.7 11.4 49 6.6 W 39 57 21 31 1016.7 1012.3 0.0
24/09:00pm 21.9 14.6 12.7 56 5.5 W 43 57 23 31 1016.7 1012.3 0.0
24/08:55pm 21.6 15.2 11.9 54 5.7 W 37 57 20 31 1016.6 1012.2 0.0
24/08:45pm 21.3 13.8 12.2 56 5.4 WNW 43 57 23 31 1016.9 1012.5 0.0
24/08:30pm 26.3 21.4 12.4 42 8.4 WNW 30 48 16 26 1016.4 1011.9 0.0
24/08:28pm 26.5 21.9 12.2 41 8.6 WNW 28 48 15 26 1016.4 1011.9 0.0
24/08:00pm 27.4 24.5 12.2 39 9.2 NW 19 24 10 13 1015.8 1011.4 0.0
24/07:30pm 28.0 24.4 12.0 37 9.7 NW 22 32 12 17 1015.5 1011.0 0.0
24/07:00pm 28.2 25.1 12.1 37 9.8 NW 20 28 11 15 1015.5 1011.0 0.0
24/06:30pm 29.1 24.8 12.1 35 10.4 NNW 26 35 14 19 1015.3 1010.8 0.0
24/06:00pm 29.3 24.5 11.8 34 10.6 NW 28 35 15 19 1014.7 1010.2 0.0
24/05:30pm 29.5 24.7 11.5 33 10.9 NNW 28 39 15 21 1014.5 1010.0 0.0
24/05:00pm 29.7 25.4 12.2 34 10.7 NNW 26 37 14 20 1014.7 1010.2 0.0
24/04:30pm 31.0 25.2 10.9 29 12.1 N 32 41 17 22 1014.9 1010.5 0.0
24/04:00pm 31.9 27.5 11.7 29 12.4 NNW 26 37 14 20 1015.4 1010.9 0.0
24/03:30pm 31.5 26.2 11.3 29 12.3 N 30 35 16 19 1015.7 1011.3 0.0
24/03:21pm 33.4 28.3 11.9 27 13.3 NW 30 50 16 27 1015.8 1011.4 0.0
24/03:00pm 31.3 27.4 12.2 31 11.8 NNW 24 39 13 21 1016.4 1011.9 0.0
24/02:30pm 32.5 28.8 11.6 28 12.8 WNW 22 30 12 16 1017.1 1012.7 0.0
24/02:00pm 31.3 27.3 11.7 30 12.0 WNW 24 33 13 18 1017.8 1013.4 0.0
24/01:30pm 32.5 28.4 12.7 30 12.3 NNW 26 35 14 19 1018.4 1014.0 0.0
24/01:00pm 31.1 28.1 12.5 32 11.5 NW 20 48 11 26 1018.9 1014.5 0.0
24/12:30pm 30.0 25.7 12.0 33 11.0 NW 26 35 14 19 1019.4 1015.0 0.0
24/12:00pm 29.0 24.9 11.6 34 10.5 NW 24 33 13 18 1019.8 1015.4 0.0
24/11:30am 28.7 23.9 10.4 32 10.8 NNW 26 35 14 19 1020.1 1015.8 0.0
24/11:00am 27.7 24.1 10.4 34 10.2 NNW 20 28 11 15 1020.4 1016.0 0.0
24/10:30am 27.5 23.7 9.8 33 10.3 NNW 20 30 11 16 1020.5 1016.1 0.0
24/10:00am 26.8 23.1 10.1 35 9.8 NNW 20 30 11 16 1020.6 1016.2 0.0
24/09:30am 25.2 21.4 9.9 38 8.9 N 20 24 11 13 1020.7 1016.4 0.0
24/09:00am 25.0 20.4 9.7 38 8.8 NW 24 32 13 17 1020.9 1016.6 0.4
24/08:30am 24.7 22.0 10.2 40 8.4 NW 15 20 8 11 1021.0 1016.7 0.4
24/08:00am 23.1 20.4 10.5 45 7.3 NW 15 19 8 10 1021.1 1016.8 0.4
24/07:30am 21.7 20.5 11.7 53 5.9 N 9 11 5 6 1020.9 1016.6 0.4
24/07:00am 21.3 20.2 11.9 55 5.5 ENE 9 9 5 5 1020.4 1016.0 0.4
24/06:30am 20.1 19.3 11.8 59 4.8 E 7 7 4 4 1020.4 1016.0 0.4
24/06:00am 19.2 18.3 11.5 61 4.4 E 7 9 4 5 1020.5 1016.1 0.4
24/05:30am 19.4 18.1 11.4 60 4.6 ENE 9 11 5 6 1020.0 1015.7 0.4
24/05:00am 19.5 18.2 11.3 59 4.7 ENE 9 13 5 7 1019.6 1015.2 0.4
24/04:30am 21.3 19.3 10.2 49 6.3 WSW 11 17 6 9 1019.0 1014.7 0.4
24/04:00am 20.7 19.4 11.1 54 5.5 N 9 13 5 7 1018.6 1014.2 0.4
24/03:30am 22.7 19.8 9.5 43 7.5 NNW 15 20 8 11 1018.7 1014.3 0.4
24/03:00am 20.5 18.9 11.4 56 5.3 NNE 11 13 6 7 1019.0 1014.7 0.4
24/02:30am 20.3 18.4 11.8 58 5.0 NNW 13 15 7 8 1019.8 1015.4 0.4
24/02:00am 19.8 18.3 13.0 65 4.0 N 13 15 7 8 1020.3 1015.9 0.4
24/01:30am 19.1 17.4 13.5 70 3.4 NE 15 17 8 9 1020.7 1016.4 0.4
24/01:00am 20.1 20.7 13.1 64 4.2 NW 2 13 1 7 1021.4 1017.0 0.4
24/12:30am 20.5 19.9 12.2 59 4.9 SSE 7 13 4 7 1022.0 1017.7 0.4
24/12:00am 20.8 18.4 12.5 59 4.9 SSW 17 22 9 12 1021.9 1017.6 0.4
 
Date/Time
EDT
Temp
°C
App
Temp
°C
Dew
Point
Rel
Hum
%
Delta-T
°C
Wind Press
QNH
hPa
Press
MSL
hPa
Rain
since 9 am
mm
Dir
 
Spd
km/h
Gust
km/h
Spd
kts
Gust
kts
23/11:30pm 20.4 17.9 13.6 65 4.1 SSW 19 24 10 13 1021.9 1017.6 0.4
23/11:00pm 20.2 19.7 13.9 67 3.8 SW 9 13 5 7 1022.4 1018.1 0.4
23/10:30pm 21.0 22.1 13.4 62 4.6 CALM 0 6 0 3 1022.6 1018.3 0.4
23/10:00pm 21.0 18.9 12.4 58 5.1 E 15 19 8 10 1021.9 1017.6 0.4
23/09:30pm 20.3 17.7 13.3 64 4.2 E 19 22 10 12 1021.8 1017.5 0.4
23/09:00pm 19.8 17.7 14.6 72 3.2 ENE 19 22 10 12 1022.1 1017.8 0.4
23/08:30pm 19.7 17.6 14.7 73 3.1 ENE 19 26 10 14 1021.6 1017.3 0.4
23/08:00pm 20.2 16.5 15.0 72 3.2 ENE 28 35 15 19 1021.5 1017.1 0.4
23/07:30pm 19.9 15.7 15.7 77 2.6 ENE 32 41 17 22 1021.7 1017.4 0.0
23/07:00pm 22.2 17.9 14.3 61 4.8 E 30 44 16 24 1022.4 1018.1 0.0
23/06:30pm 24.8 19.0 11.4 43 7.9 NE 33 46 18 25 1020.7 1016.4 0.0
23/06:08pm 26.8 20.9 10.5 36 9.6 NE 32 50 17 27 1019.6 1015.2 0.0
23/06:00pm 27.7 23.2 10.0 33 10.4 NNE 24 37 13 20 1019.1 1014.8 0.0

Other Formats:

Comma delimited format used in spreadsheet applications
http://www.bom.gov.au/fwo/IDN60801/IDN60801.95773.axf

JavaScript Object Notation format (JSON) in row-major order
http://www.bom.gov.au/fwo/IDN60801/IDN60801.95773.json